createdAt,value
2023-01-06T00:00:01.044Z,10.5
2023-01-06T00:01:01.646Z,10.5
2023-01-06T00:02:01.261Z,10.5
2023-01-06T00:03:01.807Z,10.5
2023-01-06T00:04:01.400Z,10.6
2023-01-06T00:05:00.991Z,10.5
2023-01-06T00:06:01.570Z,10.5
2023-01-06T00:07:01.158Z,10.6
2023-01-06T00:08:01.731Z,10.6
2023-01-06T00:09:01.448Z,10.6
2023-01-06T00:10:01.911Z,10.6
2023-01-06T00:11:01.519Z,10.6
2023-01-06T00:12:01.137Z,10.6
2023-01-06T00:13:01.685Z,10.6
2023-01-06T00:14:01.306Z,10.6
2023-01-06T00:15:01.866Z,10.6
2023-01-06T00:16:01.541Z,10.6
2023-01-06T00:17:01.124Z,10.6
2023-01-06T00:18:01.693Z,10.5
2023-01-06T00:19:01.301Z,10.5
2023-01-06T00:20:01.887Z,10.6
2023-01-06T00:21:01.473Z,10.5
2023-01-06T00:22:01.083Z,10.5
2023-01-06T00:23:01.646Z,10.5
2023-01-06T00:24:01.236Z,10.6
2023-01-06T00:25:01.944Z,10.6
2023-01-06T00:26:01.578Z,10.6
2023-01-06T00:27:01.085Z,10.6
2023-01-06T00:28:01.661Z,10.6
2023-01-06T00:29:01.252Z,10.6
2023-01-06T00:30:01.842Z,10.6
2023-01-06T00:31:01.482Z,10.6
2023-01-06T00:32:01.015Z,10.6
2023-01-06T00:33:01.596Z,10.6
2023-01-06T00:34:01.209Z,10.6
2023-01-06T00:35:01.760Z,10.6
2023-01-06T00:36:01.378Z,10.7
2023-01-06T00:37:00.957Z,10.6
2023-01-06T00:38:01.525Z,10.6
2023-01-06T00:39:01.124Z,10.5
2023-01-06T00:40:01.699Z,10.5
2023-01-06T00:41:01.411Z,10.5
2023-01-06T00:42:01.893Z,10.5
2023-01-06T00:43:01.484Z,10.5
2023-01-06T00:44:01.081Z,10.5
2023-01-06T00:45:01.659Z,10.5
2023-01-06T00:46:01.257Z,10.5
2023-01-06T00:47:01.855Z,10.5
2023-01-06T00:48:01.444Z,10.6
2023-01-06T00:49:05.455Z,10.5
2023-01-06T00:50:01.583Z,10.6
2023-01-06T00:51:01.176Z,10.6
2023-01-06T00:52:01.774Z,10.6
2023-01-06T00:53:01.365Z,10.6
2023-01-06T00:54:00.954Z,10.6
2023-01-06T00:55:01.541Z,10.5
2023-01-06T00:56:01.131Z,10.5
2023-01-06T00:57:01.744Z,10.5
2023-01-06T00:58:01.334Z,10.5
2023-01-06T00:59:01.924Z,10.6
2023-01-06T01:00:01.533Z,10.5
2023-01-06T01:01:01.129Z,10.5
2023-01-06T01:02:01.823Z,10.5
2023-01-06T01:03:01.380Z,10.5
2023-01-06T01:04:01.935Z,10.5
2023-01-06T01:05:01.551Z,10.5
2023-01-06T01:06:01.144Z,10.5
2023-01-06T01:07:01.723Z,10.5
2023-01-06T01:08:01.314Z,10.6
2023-01-06T01:09:01.895Z,10.5
2023-01-06T01:10:01.521Z,10.5
2023-01-06T01:11:02.603Z,10.5
2023-01-06T01:12:01.657Z,10.5
2023-01-06T01:13:01.368Z,10.5
2023-01-06T01:14:01.826Z,10.5
2023-01-06T01:15:01.460Z,10.6
2023-01-06T01:16:01.018Z,10.6
2023-01-06T01:17:01.574Z,10.6
2023-01-06T01:18:01.166Z,10.6
2023-01-06T01:19:01.759Z,10.6
2023-01-06T01:20:01.388Z,10.6
2023-01-06T01:21:00.938Z,10.6
2023-01-06T01:22:01.514Z,10.5
2023-01-06T01:23:01.103Z,10.6
2023-01-06T01:24:01.684Z,10.6
2023-01-06T01:25:01.304Z,10.6
2023-01-06T01:26:00.935Z,10.6
2023-01-06T01:27:01.549Z,10.6
2023-01-06T01:28:01.063Z,10.6
2023-01-06T01:29:01.774Z,10.6
2023-01-06T01:30:01.338Z,10.6
2023-01-06T01:31:01.923Z,10.6
2023-01-06T01:32:01.527Z,10.5
2023-01-06T01:33:01.104Z,10.6
2023-01-06T01:34:01.693Z,10.6
2023-01-06T01:35:01.332Z,10.6
2023-01-06T01:36:01.853Z,10.6
2023-01-06T01:37:01.440Z,10.6
2023-01-06T01:38:01.033Z,10.6
2023-01-06T01:39:01.616Z,10.6
2023-01-06T01:40:01.225Z,10.6
2023-01-06T01:41:01.779Z,10.5
2023-01-06T01:42:01.367Z,10.5
2023-01-06T01:43:00.942Z,10.5
2023-01-06T01:44:01.544Z,10.6
2023-01-06T01:45:01.289Z,10.6
2023-01-06T01:46:01.785Z,10.6
2023-01-06T01:47:01.364Z,10.6
2023-01-06T01:48:01.937Z,10.6
2023-01-06T01:49:01.528Z,10.6
2023-01-06T01:50:01.163Z,10.7
2023-01-06T01:51:01.694Z,10.6
2023-01-06T01:52:01.280Z,10.6
2023-01-06T01:53:01.999Z,10.6
2023-01-06T01:54:01.589Z,10.6
2023-01-06T01:55:01.114Z,10.6
2023-01-06T01:56:01.679Z,10.6
2023-01-06T01:57:01.274Z,10.6
2023-01-06T01:58:01.876Z,10.6
2023-01-06T01:59:01.499Z,10.6
2023-01-06T02:00:01.042Z,10.6
2023-01-06T02:01:01.767Z,10.6
2023-01-06T02:02:01.388Z,10.6
2023-01-06T02:03:01.986Z,10.6
2023-01-06T02:04:01.607Z,10.7
2023-01-06T02:05:01.112Z,10.7
2023-01-06T02:06:01.696Z,10.6
2023-01-06T02:07:01.296Z,10.7
2023-01-06T02:08:01.881Z,10.7
2023-01-06T02:09:01.475Z,10.6
2023-01-06T02:10:01.048Z,10.6
2023-01-06T02:11:01.633Z,10.6
2023-01-06T02:12:01.219Z,10.6
2023-01-06T02:13:01.818Z,10.7
2023-01-06T02:14:01.411Z,10.6
2023-01-06T02:15:01.014Z,10.6
2023-01-06T02:16:01.625Z,10.6
2023-01-06T02:17:01.352Z,10.7
2023-01-06T02:18:01.816Z,10.7
2023-01-06T02:19:01.401Z,10.7
2023-01-06T02:20:01.027Z,10.7
2023-01-06T02:21:01.576Z,10.6
2023-01-06T02:22:01.162Z,10.7
2023-01-06T02:23:01.746Z,10.6
2023-01-06T02:24:01.335Z,10.7
2023-01-06T02:25:01.939Z,10.6
2023-01-06T02:26:01.553Z,10.7
2023-01-06T02:27:01.234Z,10.7
2023-01-06T02:28:01.697Z,10.7
2023-01-06T02:29:01.311Z,10.7
2023-01-06T02:30:01.909Z,10.7
2023-01-06T02:31:01.516Z,10.8
2023-01-06T02:32:01.125Z,10.8
2023-01-06T02:33:01.810Z,10.7
2023-01-06T02:34:01.350Z,10.7
2023-01-06T02:35:01.967Z,10.7
2023-01-06T02:36:01.581Z,10.7
2023-01-06T02:37:01.171Z,10.7
2023-01-06T02:38:01.778Z,10.6
2023-01-06T02:39:01.368Z,10.7
2023-01-06T02:40:00.973Z,10.7
2023-01-06T02:41:01.547Z,10.7
2023-01-06T02:42:01.137Z,10.7
2023-01-06T02:43:01.722Z,10.7
2023-01-06T02:44:01.308Z,10.7
2023-01-06T02:45:01.923Z,10.7
2023-01-06T02:46:01.555Z,10.6
2023-01-06T02:47:01.101Z,10.6
2023-01-06T02:48:01.689Z,10.7
2023-01-06T02:49:01.454Z,10.6
2023-01-06T02:50:01.915Z,10.7
2023-01-06T02:51:01.539Z,10.7
2023-01-06T02:52:01.105Z,10.7
2023-01-06T02:53:01.694Z,10.7
2023-01-06T02:54:01.294Z,10.7
2023-01-06T02:55:01.901Z,10.7
2023-01-06T02:56:01.495Z,10.7
2023-01-06T02:57:01.070Z,10.7
2023-01-06T02:58:01.644Z,10.7
2023-01-06T02:59:01.256Z,10.7
2023-01-06T03:00:01.851Z,10.7
2023-01-06T03:01:01.464Z,10.8
2023-01-06T03:02:01.183Z,10.8
2023-01-06T03:03:01.600Z,10.8
2023-01-06T03:04:01.191Z,10.8
2023-01-06T03:05:01.946Z,10.8
2023-01-06T03:06:01.439Z,10.7
2023-01-06T03:07:01.005Z,10.8
2023-01-06T03:08:01.571Z,10.8
2023-01-06T03:09:01.160Z,10.8
2023-01-06T03:10:01.794Z,10.8
2023-01-06T03:11:01.387Z,10.8
2023-01-06T03:12:00.969Z,10.7
2023-01-06T03:13:01.533Z,10.8
2023-01-06T03:14:01.136Z,10.7
2023-01-06T03:15:01.713Z,10.8
2023-01-06T03:16:01.344Z,10.7
2023-01-06T03:17:01.895Z,10.7
2023-01-06T03:18:01.485Z,10.7
2023-01-06T03:19:01.073Z,10.6
2023-01-06T03:20:01.666Z,10.7
2023-01-06T03:21:01.375Z,10.6
2023-01-06T03:22:01.876Z,10.6
2023-01-06T03:23:01.488Z,10.7
2023-01-06T03:24:01.045Z,10.7
2023-01-06T03:25:01.636Z,10.7
2023-01-06T03:26:01.243Z,10.7
2023-01-06T03:27:01.835Z,10.6
2023-01-06T03:28:01.538Z,10.7
2023-01-06T03:29:01.007Z,10.7
2023-01-06T03:30:01.590Z,10.7
2023-01-06T03:31:01.242Z,10.6
2023-01-06T03:32:01.777Z,10.7
2023-01-06T03:33:01.370Z,10.6
2023-01-06T03:34:01.945Z,10.6
2023-01-06T03:35:01.534Z,10.7
2023-01-06T03:36:01.125Z,10.7
2023-01-06T03:37:01.845Z,10.7
2023-01-06T03:38:01.376Z,10.7
2023-01-06T03:39:01.937Z,10.6
2023-01-06T03:40:01.528Z,10.6
2023-01-06T03:41:01.122Z,10.7
2023-01-06T03:42:01.727Z,10.6
2023-01-06T03:43:01.321Z,10.7
2023-01-06T03:44:01.901Z,10.7
2023-01-06T03:45:01.495Z,10.7
2023-01-06T03:46:01.087Z,10.7
2023-01-06T03:47:01.689Z,10.7
2023-01-06T03:48:01.285Z,10.7
2023-01-06T03:49:01.863Z,10.7
2023-01-06T03:50:01.449Z,10.7
2023-01-06T03:51:01.031Z,10.8
2023-01-06T03:52:01.622Z,10.7
2023-01-06T03:53:01.330Z,10.8
2023-01-06T03:54:01.870Z,10.8
2023-01-06T03:55:01.449Z,10.8
2023-01-06T03:56:01.018Z,10.8
2023-01-06T03:57:01.593Z,10.7
2023-01-06T03:58:01.188Z,10.6
2023-01-06T03:59:01.801Z,10.6
2023-01-06T04:00:01.388Z,10.6
2023-01-06T04:01:01.035Z,10.7
2023-01-06T04:02:01.564Z,10.7
2023-01-06T04:03:01.153Z,10.7
2023-01-06T04:04:01.855Z,10.7
2023-01-06T04:05:01.389Z,10.7
2023-01-06T04:06:00.975Z,10.7
2023-01-06T04:07:01.550Z,10.7
2023-01-06T04:08:01.140Z,10.7
2023-01-06T04:09:01.864Z,10.7
2023-01-06T04:10:01.391Z,10.6
2023-01-06T04:11:00.956Z,10.7
2023-01-06T04:12:01.537Z,10.7
2023-01-06T04:13:01.125Z,10.7
2023-01-06T04:14:01.731Z,10.7
2023-01-06T04:15:01.317Z,10.7
2023-01-06T04:16:01.982Z,10.7
2023-01-06T04:17:01.575Z,10.7
2023-01-06T04:18:01.127Z,10.6
2023-01-06T04:19:01.722Z,10.6
2023-01-06T04:20:01.327Z,10.6
2023-01-06T04:21:01.934Z,10.7
2023-01-06T04:22:01.540Z,10.7
2023-01-06T04:23:01.130Z,10.7
2023-01-06T04:24:01.704Z,10.6
2023-01-06T04:25:01.423Z,10.7
2023-01-06T04:26:01.898Z,10.7
2023-01-06T04:27:01.495Z,10.7
2023-01-06T04:28:01.188Z,10.7
2023-01-06T04:29:01.651Z,10.8
2023-01-06T04:30:01.273Z,10.8
2023-01-06T04:31:01.820Z,10.8
2023-01-06T04:32:01.414Z,10.7
2023-01-06T04:33:00.987Z,10.7
2023-01-06T04:34:01.571Z,10.7
2023-01-06T04:35:01.216Z,10.7
2023-01-06T04:36:01.745Z,10.7
2023-01-06T04:37:01.338Z,10.7
2023-01-06T04:38:01.934Z,10.7
2023-01-06T04:39:01.525Z,10.7
2023-01-06T04:40:01.145Z,10.7
2023-01-06T04:41:01.841Z,10.7
2023-01-06T04:42:01.352Z,10.7
2023-01-06T04:43:01.925Z,10.7
2023-01-06T04:44:01.513Z,10.7
2023-01-06T04:45:01.123Z,10.7
2023-01-06T04:46:01.755Z,10.7
2023-01-06T04:47:01.360Z,10.7
2023-01-06T04:48:01.924Z,10.7
2023-01-06T04:49:01.523Z,10.5
2023-01-06T04:50:01.135Z,10.6
2023-01-06T04:51:01.699Z,10.6
2023-01-06T04:52:01.295Z,10.6
2023-01-06T04:53:01.870Z,10.7
2023-01-06T04:54:01.462Z,10.6
2023-01-06T04:55:01.064Z,10.6
2023-01-06T04:56:01.648Z,10.7
2023-01-06T04:57:01.373Z,10.7
2023-01-06T04:58:01.816Z,10.7
2023-01-06T04:59:01.423Z,10.7
2023-01-06T05:00:00.997Z,10.7
2023-01-06T05:01:01.611Z,10.7
2023-01-06T05:02:01.285Z,10.7
2023-01-06T05:03:01.823Z,10.7
2023-01-06T05:04:01.440Z,10.7
2023-01-06T05:05:00.984Z,10.7
2023-01-06T05:06:01.606Z,10.7
2023-01-06T05:07:01.214Z,10.7
2023-01-06T05:08:01.787Z,10.7
2023-01-06T05:09:01.375Z,10.7
2023-01-06T05:10:01.948Z,10.6
2023-01-06T05:11:01.588Z,10.7
2023-01-06T05:12:01.181Z,10.7
2023-01-06T05:13:01.879Z,10.7
2023-01-06T05:14:01.422Z,10.7
2023-01-06T05:15:01.011Z,10.7
2023-01-06T05:16:01.677Z,10.6
2023-01-06T05:17:01.278Z,10.6
2023-01-06T05:18:01.861Z,10.6
2023-01-06T05:19:01.453Z,10.6
2023-01-06T05:20:01.045Z,10.6
2023-01-06T05:21:01.620Z,10.7
2023-01-06T05:22:01.232Z,10.7
2023-01-06T05:23:01.778Z,10.7
2023-01-06T05:24:01.374Z,10.7
2023-01-06T05:25:01.951Z,10.7
2023-01-06T05:26:01.542Z,10.7
2023-01-06T05:27:01.152Z,10.7
2023-01-06T05:28:01.743Z,10.7
2023-01-06T05:29:01.572Z,10.6
2023-01-06T05:30:01.915Z,10.7
2023-01-06T05:31:01.504Z,10.7
2023-01-06T05:32:01.092Z,10.7
2023-01-06T05:33:01.702Z,10.7
2023-01-06T05:34:01.288Z,10.7
2023-01-06T05:35:01.888Z,10.7
2023-01-06T05:36:01.481Z,10.7
2023-01-06T05:37:01.058Z,10.7
2023-01-06T05:38:01.659Z,10.7
2023-01-06T05:39:01.289Z,10.7
2023-01-06T05:40:01.837Z,10.7
2023-01-06T05:41:01.467Z,10.7
2023-01-06T05:42:01.015Z,10.7
2023-01-06T05:43:01.596Z,10.7
2023-01-06T05:44:01.221Z,10.7
2023-01-06T05:45:01.884Z,10.7
2023-01-06T05:46:01.469Z,10.6
2023-01-06T05:47:00.983Z,10.6
2023-01-06T05:48:01.569Z,10.7
2023-01-06T05:49:01.172Z,10.7
2023-01-06T05:50:01.799Z,10.7
2023-01-06T05:51:01.380Z,10.6
2023-01-06T05:52:01.949Z,10.7
2023-01-06T05:53:01.538Z,10.7
2023-01-06T05:54:01.133Z,10.7
2023-01-06T05:55:01.719Z,10.6
2023-01-06T05:56:01.307Z,10.6
2023-01-06T05:57:01.899Z,10.6
2023-01-06T05:58:01.494Z,10.6
2023-01-06T05:59:01.083Z,10.6
2023-01-06T06:00:01.686Z,10.7
2023-01-06T06:01:01.388Z,10.6
2023-01-06T06:02:01.886Z,10.6
2023-01-06T06:03:01.495Z,10.7
2023-01-06T06:04:01.136Z,10.6
2023-01-06T06:05:01.687Z,10.7
2023-01-06T06:06:01.282Z,10.7
2023-01-06T06:07:01.869Z,10.6
2023-01-06T06:08:01.463Z,10.6
2023-01-06T06:09:01.047Z,10.5
2023-01-06T06:10:01.657Z,10.6
2023-01-06T06:11:01.249Z,10.6
2023-01-06T06:12:01.817Z,10.6
2023-01-06T06:13:01.403Z,10.6
2023-01-06T06:14:00.997Z,10.6
2023-01-06T06:15:01.601Z,10.7
2023-01-06T06:16:01.190Z,10.7
2023-01-06T06:17:01.884Z,10.6
2023-01-06T06:18:01.412Z,10.6
2023-01-06T06:19:00.988Z,10.7
2023-01-06T06:20:01.575Z,10.7
2023-01-06T06:21:01.166Z,10.7
2023-01-06T06:22:01.757Z,10.7
2023-01-06T06:23:01.346Z,10.7
2023-01-06T06:24:01.915Z,10.6
2023-01-06T06:25:01.498Z,10.7
2023-01-06T06:26:01.088Z,10.7
2023-01-06T06:27:01.681Z,10.7
2023-01-06T06:28:01.274Z,10.7
2023-01-06T06:29:01.926Z,10.7
2023-01-06T06:30:01.521Z,10.6
2023-01-06T06:31:01.126Z,10.6
2023-01-06T06:32:01.705Z,10.6
2023-01-06T06:33:01.417Z,10.6
2023-01-06T06:34:01.889Z,10.5
2023-01-06T06:35:01.485Z,10.6
2023-01-06T06:36:01.067Z,10.6
2023-01-06T06:37:01.662Z,10.6
2023-01-06T06:38:01.255Z,10.6
2023-01-06T06:39:01.822Z,10.6
2023-01-06T06:40:01.438Z,10.6
2023-01-06T06:41:00.983Z,10.6
2023-01-06T06:42:01.580Z,10.6
2023-01-06T06:43:01.170Z,10.6
2023-01-06T06:44:01.748Z,10.6
2023-01-06T06:45:01.344Z,10.6
2023-01-06T06:46:01.983Z,10.6
2023-01-06T06:47:01.609Z,10.6
2023-01-06T06:48:01.131Z,10.6
2023-01-06T06:49:01.855Z,10.6
2023-01-06T06:50:01.373Z,10.6
2023-01-06T06:51:01.959Z,10.6
2023-01-06T06:52:01.556Z,10.6
2023-01-06T06:53:01.148Z,10.6
2023-01-06T06:54:01.754Z,10.6
2023-01-06T06:55:01.342Z,10.6
2023-01-06T06:56:01.949Z,10.6
2023-01-06T06:57:01.534Z,10.6
2023-01-06T06:58:01.161Z,10.6
2023-01-06T06:59:01.729Z,10.6
2023-01-06T07:00:01.316Z,10.6
2023-01-06T07:01:01.912Z,10.6
2023-01-06T07:02:01.610Z,10.6
2023-01-06T07:03:01.088Z,10.6
2023-01-06T07:04:01.680Z,10.6
2023-01-06T07:05:01.390Z,10.5
2023-01-06T07:06:01.853Z,10.5
2023-01-06T07:07:01.464Z,10.5
2023-01-06T07:08:01.017Z,10.5
2023-01-06T07:09:01.623Z,10.6
2023-01-06T07:10:01.233Z,10.6
2023-01-06T07:11:01.803Z,10.6
2023-01-06T07:12:01.406Z,10.4
2023-01-06T07:13:03.397Z,10.5
2023-01-06T07:14:01.530Z,10.5
2023-01-06T07:15:01.125Z,10.5
2023-01-06T07:16:01.746Z,10.5
2023-01-06T07:17:01.363Z,10.5
2023-01-06T07:18:01.945Z,10.5
2023-01-06T07:19:01.554Z,10.5
2023-01-06T07:20:01.147Z,10.5
2023-01-06T07:21:01.848Z,10.5
2023-01-06T07:22:01.380Z,10.6
2023-01-06T07:23:01.979Z,10.6
2023-01-06T07:24:01.601Z,10.5
2023-01-06T07:25:01.186Z,10.6
2023-01-06T07:26:01.799Z,10.5
2023-01-06T07:27:01.395Z,10.5
2023-01-06T07:28:01.976Z,10.5
2023-01-06T07:29:01.584Z,10.6
2023-01-06T07:30:01.280Z,10.6
2023-01-06T07:31:01.905Z,10.6
2023-01-06T07:32:01.394Z,10.6
2023-01-06T07:33:01.971Z,10.5
2023-01-06T07:34:01.580Z,10.6
2023-01-06T07:35:01.182Z,10.5
2023-01-06T07:36:01.787Z,10.5
2023-01-06T07:37:01.518Z,10.5
2023-01-06T07:38:01.957Z,10.6
2023-01-06T07:39:01.565Z,10.6
2023-01-06T07:40:01.159Z,10.6
2023-01-06T07:41:01.744Z,10.5
2023-01-06T07:42:01.332Z,10.6
2023-01-06T07:43:01.917Z,10.6
2023-01-06T07:44:01.512Z,10.6
2023-01-06T07:45:01.101Z,10.6
2023-01-06T07:46:01.782Z,10.7
2023-01-06T07:47:01.343Z,10.7
2023-01-06T07:48:01.913Z,10.6
2023-01-06T07:49:01.500Z,10.7
2023-01-06T07:50:01.120Z,10.8
2023-01-06T07:51:01.722Z,10.7
2023-01-06T07:52:01.328Z,10.7
2023-01-06T07:53:02.079Z,10.7
2023-01-06T07:54:01.675Z,10.7
2023-01-06T07:55:01.150Z,10.7
2023-01-06T07:56:01.749Z,10.8
2023-01-06T07:57:01.345Z,10.8
2023-01-06T07:58:01.919Z,10.8
2023-01-06T07:59:01.513Z,10.7
2023-01-06T08:00:01.117Z,10.8
2023-01-06T08:01:01.721Z,10.8
2023-01-06T08:02:01.474Z,10.8
2023-01-06T08:03:01.920Z,10.9
2023-01-06T08:04:01.539Z,10.8
2023-01-06T08:05:01.123Z,10.8
2023-01-06T08:06:01.704Z,10.8
2023-01-06T08:07:01.303Z,10.8
2023-01-06T08:08:01.871Z,10.9
2023-01-06T08:09:01.594Z,10.8
2023-01-06T08:10:01.028Z,10.8
2023-01-06T08:11:01.609Z,10.8
2023-01-06T08:12:01.195Z,10.8
2023-01-06T08:13:01.783Z,10.8
2023-01-06T08:14:01.409Z,10.9
2023-01-06T08:15:01.954Z,10.9
2023-01-06T08:16:01.559Z,10.9
2023-01-06T08:17:01.170Z,10.9
2023-01-06T08:18:01.751Z,10.9
2023-01-06T08:19:01.384Z,10.9
2023-01-06T08:20:01.921Z,10.9
2023-01-06T08:21:01.516Z,10.9
2023-01-06T08:22:01.125Z,10.9
2023-01-06T08:23:01.698Z,10.9
2023-01-06T08:24:01.322Z,10.9
2023-01-06T08:25:01.985Z,10.9
2023-01-06T08:26:01.514Z,10.9
2023-01-06T08:27:01.119Z,10.9
2023-01-06T08:28:01.680Z,10.9
2023-01-06T08:29:01.285Z,10.9
2023-01-06T08:30:01.840Z,10.9
2023-01-06T08:31:01.562Z,10.9
2023-01-06T08:32:10.200Z,10.8
2023-01-06T08:33:01.550Z,10.8
2023-01-06T08:34:01.169Z,10.9
2023-01-06T08:35:01.717Z,10.9
2023-01-06T08:36:01.304Z,10.9
2023-01-06T08:37:01.882Z,10.9
2023-01-06T08:38:01.468Z,10.9
2023-01-06T08:39:01.077Z,10.9
2023-01-06T08:40:01.658Z,10.9
2023-01-06T08:41:01.411Z,10.9
2023-01-06T08:42:01.828Z,10.9
2023-01-06T08:43:01.440Z,10.9
2023-01-06T08:44:01.004Z,10.9
2023-01-06T08:45:01.578Z,10.9
2023-01-06T08:46:01.229Z,10.9
2023-01-06T08:47:01.743Z,10.8
2023-01-06T08:48:01.333Z,10.8
2023-01-06T08:49:01.928Z,10.8
2023-01-06T08:50:01.645Z,10.8
2023-01-06T08:51:01.165Z,10.8
2023-01-06T08:52:01.708Z,10.8
2023-01-06T08:53:01.295Z,10.8
2023-01-06T08:54:01.864Z,10.8
2023-01-06T08:55:01.452Z,10.7
2023-01-06T08:56:01.066Z,10.7
2023-01-06T08:57:01.753Z,10.8
2023-01-06T08:58:01.269Z,10.8
2023-01-06T08:59:01.849Z,10.8
2023-01-06T09:00:01.468Z,10.8
2023-01-06T09:01:01.059Z,10.8
2023-01-06T09:02:01.743Z,10.8
2023-01-06T09:03:01.296Z,10.9
2023-01-06T09:04:01.858Z,10.8
2023-01-06T09:05:01.593Z,10.8
2023-01-06T09:06:01.034Z,10.8
2023-01-06T09:07:01.610Z,10.7
2023-01-06T09:08:01.223Z,10.8
2023-01-06T09:09:01.775Z,10.8
2023-01-06T09:10:01.449Z,10.8
2023-01-06T09:11:01.952Z,10.8
2023-01-06T09:12:01.557Z,10.7
2023-01-06T09:13:01.316Z,10.7
2023-01-06T09:14:01.736Z,10.8
2023-01-06T09:15:01.324Z,10.8
2023-01-06T09:16:01.931Z,10.8
2023-01-06T09:17:01.523Z,10.8
2023-01-06T09:18:01.120Z,10.8
2023-01-06T09:19:01.706Z,10.8
2023-01-06T09:20:01.318Z,10.9
2023-01-06T09:21:01.867Z,10.9
2023-01-06T09:22:01.456Z,10.9
2023-01-06T09:23:01.045Z,10.9
2023-01-06T09:24:01.638Z,10.9
2023-01-06T09:25:01.236Z,10.9
2023-01-06T09:26:01.818Z,10.9
2023-01-06T09:27:01.413Z,11
2023-01-06T09:28:00.992Z,11
2023-01-06T09:29:01.714Z,11
2023-01-06T09:30:01.225Z,11
2023-01-06T09:31:01.894Z,11
2023-01-06T09:32:01.467Z,10.9
2023-01-06T09:33:01.024Z,10.8
2023-01-06T09:34:01.652Z,10.8
2023-01-06T09:35:01.248Z,10.8
2023-01-06T09:36:01.833Z,10.8
2023-01-06T09:37:01.424Z,10.9
2023-01-06T09:38:01.008Z,10.9
2023-01-06T09:39:01.704Z,10.9
2023-01-06T09:40:01.266Z,11
2023-01-06T09:41:01.823Z,10.9
2023-01-06T09:42:01.415Z,11.1
2023-01-06T09:43:00.999Z,11.1
2023-01-06T09:44:01.585Z,11.1
2023-01-06T09:45:01.310Z,11.1
2023-01-06T09:46:01.757Z,11.2
2023-01-06T09:47:01.364Z,11.1
2023-01-06T09:48:01.932Z,11
2023-01-06T09:49:01.525Z,11
2023-01-06T09:50:01.134Z,10.7
2023-01-06T09:51:01.704Z,10.4
2023-01-06T09:52:01.303Z,10.4
2023-01-06T09:53:01.913Z,10.4
2023-01-06T09:54:01.510Z,10.4
2023-01-06T09:55:01.110Z,10.5
2023-01-06T09:56:01.678Z,10.6
2023-01-06T09:57:01.265Z,10.6
2023-01-06T09:58:01.854Z,10.7
2023-01-06T09:59:01.443Z,10.7
2023-01-06T10:00:01.047Z,10.7
2023-01-06T10:01:01.755Z,10.7
2023-01-06T10:02:01.365Z,10.7
2023-01-06T10:03:01.896Z,10.7
2023-01-06T10:04:01.545Z,10.7
2023-01-06T10:05:01.067Z,10.8
2023-01-06T10:06:01.733Z,10.7
2023-01-06T10:07:01.285Z,10.6
2023-01-06T10:08:01.872Z,10.6
2023-01-06T10:09:01.467Z,10.5
2023-01-06T10:10:01.053Z,10.4
2023-01-06T10:11:01.652Z,10.4
2023-01-06T10:12:01.258Z,10.4
2023-01-06T10:13:01.827Z,10.3
2023-01-06T10:14:01.414Z,10.3
2023-01-06T10:15:02.000Z,10.3
2023-01-06T10:16:01.640Z,10.3
2023-01-06T10:17:01.370Z,10.3
2023-01-06T10:18:01.802Z,10.3
2023-01-06T10:19:01.392Z,10.3
2023-01-06T10:20:01.968Z,10.4
2023-01-06T10:21:01.562Z,10.5
2023-01-06T10:22:01.206Z,10.5
2023-01-06T10:23:01.792Z,10.5
2023-01-06T10:24:01.391Z,10.4
2023-01-06T10:25:01.961Z,10.6
2023-01-06T10:26:01.552Z,10.6
2023-01-06T10:27:01.161Z,10.6
2023-01-06T10:28:01.757Z,10.6
2023-01-06T10:29:01.346Z,10.6
2023-01-06T10:30:01.916Z,10.5
2023-01-06T10:31:01.539Z,10.6
2023-01-06T10:32:01.224Z,10.6
2023-01-06T10:33:01.850Z,10.6
2023-01-06T10:34:01.373Z,10.6
2023-01-06T10:35:01.959Z,10.6
2023-01-06T10:36:01.563Z,10.6
2023-01-06T10:37:01.153Z,10.7
2023-01-06T10:38:01.750Z,10.7
2023-01-06T10:39:01.362Z,10.6
2023-01-06T10:40:01.916Z,10.6
2023-01-06T10:41:01.508Z,10.6
2023-01-06T10:42:01.105Z,10.7
2023-01-06T10:43:01.673Z,10.6
2023-01-06T10:44:01.280Z,10.6
2023-01-06T10:45:01.856Z,10.6
2023-01-06T10:46:01.447Z,10.6
2023-01-06T10:47:01.048Z,10.6
2023-01-06T10:48:01.622Z,10.7
2023-01-06T10:49:01.348Z,10.7
2023-01-06T10:50:01.795Z,10.8
2023-01-06T10:51:01.381Z,10.8
2023-01-06T10:52:01.968Z,10.8
2023-01-06T10:53:01.565Z,10.8
2023-01-06T10:54:01.233Z,10.9
2023-01-06T10:55:01.795Z,11
2023-01-06T10:56:01.387Z,11.1
2023-01-06T10:57:01.971Z,11.1
2023-01-06T10:58:01.567Z,11.1
2023-01-06T10:59:01.180Z,11.1
2023-01-06T11:00:01.742Z,11
2023-01-06T11:01:01.434Z,11
2023-01-06T11:02:02.100Z,11
2023-01-06T11:03:14.073Z,11.1
2023-01-06T11:04:01.287Z,11.1
2023-01-06T11:05:01.906Z,11.1
2023-01-06T11:06:01.421Z,11.1
2023-01-06T11:07:02.009Z,11.2
2023-01-06T11:08:01.689Z,11.2
2023-01-06T11:09:01.219Z,11.1
2023-01-06T11:10:01.801Z,11.1
2023-01-06T11:11:01.407Z,11.2
2023-01-06T11:12:01.991Z,11.2
2023-01-06T11:13:01.578Z,11.2
2023-01-06T11:14:01.197Z,11.2
2023-01-06T11:15:01.776Z,11.2
2023-01-06T11:16:01.449Z,11.3
2023-01-06T11:17:01.971Z,11.3
2023-01-06T11:18:01.572Z,11.2
2023-01-06T11:19:01.166Z,11.2
2023-01-06T11:20:01.741Z,11.2
2023-01-06T11:21:01.444Z,11.1
2023-01-06T11:22:01.935Z,11.2
2023-01-06T11:23:01.523Z,11.2
2023-01-06T11:24:01.119Z,11.3
2023-01-06T11:25:01.707Z,11.3
2023-01-06T11:26:01.296Z,11.4
2023-01-06T11:27:01.898Z,11.3
2023-01-06T11:28:01.486Z,11.4
2023-01-06T11:29:01.071Z,11.4
2023-01-06T11:30:01.674Z,11.4
2023-01-06T11:31:01.275Z,11.4
2023-01-06T11:32:01.888Z,11.5
2023-01-06T11:33:01.568Z,11.5
2023-01-06T11:34:01.056Z,11.5
2023-01-06T11:35:01.650Z,11.5
2023-01-06T11:36:01.234Z,11.5
2023-01-06T11:37:01.958Z,11.5
2023-01-06T11:38:01.483Z,11.7
2023-01-06T11:39:01.079Z,11.5
2023-01-06T11:40:05.409Z,11.7
2023-01-06T11:41:01.193Z,11.8
2023-01-06T11:42:01.793Z,11.8
2023-01-06T11:43:01.410Z,11.6
2023-01-06T11:44:01.971Z,11.5
2023-01-06T11:45:01.559Z,11.5
2023-01-06T11:46:01.185Z,11.6
2023-01-06T11:47:01.738Z,11.6
2023-01-06T11:48:01.361Z,11.7
2023-01-06T11:49:01.915Z,11.7
2023-01-06T11:50:01.504Z,11.6
2023-01-06T11:51:01.098Z,11.5
2023-01-06T11:52:01.681Z,11.5
2023-01-06T11:53:01.409Z,11.5
2023-01-06T11:54:01.853Z,11.6
2023-01-06T11:55:01.473Z,11.6
2023-01-06T11:56:01.005Z,11.7
2023-01-06T11:57:01.597Z,11.6
2023-01-06T11:58:01.191Z,11.6
2023-01-06T11:59:01.783Z,11.5
2023-01-06T12:00:01.405Z,11.5
2023-01-06T12:01:01.978Z,11.5
2023-01-06T12:02:01.585Z,11.5
2023-01-06T12:03:01.210Z,11.5
2023-01-06T12:04:01.757Z,11.5
2023-01-06T12:05:01.366Z,11.6
2023-01-06T12:06:01.943Z,11.7
2023-01-06T12:07:01.539Z,11.7
2023-01-06T12:08:01.131Z,11.7
2023-01-06T12:09:01.845Z,11.6
2023-01-06T12:10:01.381Z,11.6
2023-01-06T12:11:01.946Z,11.7
2023-01-06T12:12:01.562Z,11.7
2023-01-06T12:13:01.151Z,11.8
2023-01-06T12:14:13.226Z,11.7
2023-01-06T12:15:02.698Z,11.7
2023-01-06T12:16:01.393Z,11.7
2023-01-06T12:17:01.645Z,11.7
2023-01-06T12:18:01.203Z,11.7
2023-01-06T12:19:01.797Z,11.7
2023-01-06T12:20:01.389Z,11.8
2023-01-06T12:21:01.971Z,11.7
2023-01-06T12:22:01.569Z,11.8
2023-01-06T12:23:01.162Z,11.6
2023-01-06T12:24:01.757Z,11.7
2023-01-06T12:25:01.497Z,11.7
2023-01-06T12:26:01.928Z,11.7
2023-01-06T12:27:01.515Z,11.8
2023-01-06T12:28:01.132Z,11.8
2023-01-06T12:29:01.675Z,11.8
2023-01-06T12:30:01.266Z,11.8
2023-01-06T12:31:01.973Z,11.8
2023-01-06T12:32:01.511Z,11.7
2023-01-06T12:33:01.238Z,11.6
2023-01-06T12:34:01.675Z,11.6
2023-01-06T12:35:01.267Z,11.7
2023-01-06T12:36:01.869Z,11.7
2023-01-06T12:37:01.472Z,11.8
2023-01-06T12:38:01.078Z,11.8
2023-01-06T12:39:01.650Z,11.7
2023-01-06T12:40:01.244Z,11.7
2023-01-06T12:41:01.955Z,11.8
2023-01-06T12:42:01.495Z,11.8
2023-01-06T12:43:01.065Z,11.8
2023-01-06T12:44:01.672Z,11.8
2023-01-06T12:45:01.258Z,11.8
2023-01-06T12:46:01.892Z,11.8
2023-01-06T12:47:01.496Z,11.8
2023-01-06T12:48:01.107Z,11.8
2023-01-06T12:49:01.680Z,11.8
2023-01-06T12:50:01.271Z,11.8
2023-01-06T12:51:01.853Z,11.8
2023-01-06T12:52:01.442Z,11.8
2023-01-06T12:53:02.806Z,11.8
2023-01-06T12:54:01.578Z,11.9
2023-01-06T12:55:01.228Z,11.9
2023-01-06T12:56:01.763Z,12
2023-01-06T12:57:01.485Z,12
2023-01-06T12:58:01.928Z,12
2023-01-06T12:59:01.529Z,12
2023-01-06T13:00:01.137Z,12.1
2023-01-06T13:01:01.819Z,12.1
2023-01-06T13:02:01.471Z,12.2
2023-01-06T13:03:01.949Z,12.1
2023-01-06T13:04:01.592Z,12.2
2023-01-06T13:05:01.201Z,12.2
2023-01-06T13:06:01.755Z,12.3
2023-01-06T13:07:01.341Z,12.3
2023-01-06T13:08:01.927Z,12.3
2023-01-06T13:09:01.516Z,12.3
2023-01-06T13:10:01.131Z,12.4
2023-01-06T13:11:01.697Z,12.4
2023-01-06T13:12:01.293Z,12.3
2023-01-06T13:13:02.042Z,12.2
2023-01-06T13:14:01.541Z,12.2
2023-01-06T13:15:01.129Z,12.2
2023-01-06T13:16:01.696Z,12.2
2023-01-06T13:17:01.329Z,12.2
2023-01-06T13:18:03.299Z,12.1
2023-01-06T13:19:01.408Z,12.2